Time;durP1;ratioP1;P1;durP2;ratioP2;P2;SDS_P1;SDS_P2;PMS_P1;PMS_P2;Temp;Humidity;BMP_temperature;BMP_pressure;BME280_temperature;BME280_humidity;BME280_pressure;Samples;Min_cycle;Max_cycle;Signal;HPM_P1;HPM_P2
2023/01/12 00:02:20;;;;;;;14.35;2.58;;;8.40;99.90;;;-144.05;77.43;125687.94;5037974;28;20029;-78
2023/01/12 00:04:46;;;;;;;14.90;2.58;;;8.40;99.90;;;-144.05;77.41;125687.94;5036415;28;20041;-77
2023/01/12 00:07:14;;;;;;;12.13;2.22;;;8.40;99.90;;;-144.05;77.31;125687.94;5019997;28;20132;-76
2023/01/12 00:09:40;;;;;;;10.73;2.30;;;8.30;99.90;;;-144.05;77.29;125687.94;5037682;28;20037;-78
2023/01/12 00:12:10;;;;;;;18.85;2.80;;;8.40;99.90;;;-144.05;76.58;125687.94;5020292;28;20190;-78
2023/01/12 00:14:38;;;;;;;11.43;1.80;;;8.40;99.90;;;-144.05;76.48;125687.94;5037182;28;20050;-78
2023/01/12 00:17:05;;;;;;;8.93;1.88;;;8.50;99.90;;;-144.05;76.49;125687.94;5036768;28;20056;-78
2023/01/12 00:19:32;;;;;;;9.68;1.67;;;8.40;99.90;;;-144.05;76.39;125687.94;5037328;28;20396;-77
2023/01/12 00:22:04;;;;;;;10.93;2.13;;;8.50;99.90;;;-144.05;76.17;125687.94;5037741;28;20060;-78
2023/01/12 00:24:39;;;;;;;10.98;2.55;;;8.50;99.90;;;-144.05;76.45;125687.94;5036057;28;20087;-78
2023/01/12 00:27:13;;;;;;;8.95;2.33;;;8.40;99.90;;;-144.05;76.69;125687.94;5036450;28;20056;-77
2023/01/12 00:29:39;;;;;;;7.88;2.08;;;8.50;99.90;;;-144.05;76.53;125687.94;5037419;28;20025;-77
2023/01/12 00:32:10;;;;;;;13.65;2.78;;;8.50;99.90;;;-144.05;76.59;125687.94;5036009;28;20028;-79
2023/01/12 00:34:35;;;;;;;9.27;1.92;;;8.50;99.90;;;-144.05;76.27;125687.94;5037112;28;20021;-77
2023/01/12 00:37:02;;;;;;;10.73;2.00;;;8.50;99.90;;;-144.05;76.21;125687.94;5019886;28;20447;-78
2023/01/12 00:39:29;;;;;;;13.32;2.30;;;8.60;99.90;;;-144.05;76.39;125687.94;5055614;28;20021;-77
2023/01/12 00:47:25;;;;;;;10.43;2.33;;;8.50;99.90;;;-144.05;77.57;125687.94;5036875;28;20040;-78
2023/01/12 00:49:51;;;;;;;7.43;1.88;;;8.50;99.90;;;-144.05;77.78;125687.94;5035938;28;20404;-78
2023/01/12 00:52:20;;;;;;;10.98;2.58;;;8.50;99.90;;;-144.05;78.10;125687.94;5047836;28;20032;-77
2023/01/12 00:54:46;;;;;;;9.27;1.67;;;8.50;99.90;;;-144.05;78.13;125687.94;5037399;28;20033;-77
2023/01/12 00:57:14;;;;;;;9.25;2.08;;;8.40;99.90;;;-144.05;78.33;125687.94;5018949;28;20033;-77
2023/01/12 00:59:40;;;;;;;10.82;1.60;;;8.40;99.90;;;-144.05;78.98;125687.94;5036753;28;20044;-76
2023/01/12 01:02:07;;;;;;;10.82;2.30;;;8.40;99.90;;;-144.05;78.75;125687.94;5037405;28;20040;-78
2023/01/12 01:04:35;;;;;;;7.05;1.77;;;8.40;99.90;;;-144.05;78.95;125687.94;5018812;28;20025;-78
2023/01/12 01:07:02;;;;;;;10.18;2.05;;;8.40;99.90;;;-144.05;79.13;125687.94;5035572;28;20506;-77
2023/01/12 01:09:30;;;;;;;14.85;2.25;;;8.40;99.90;;;-144.05;79.56;125687.94;5019042;28;20037;-78
2023/01/12 01:11:57;;;;;;;14.57;1.88;;;8.40;99.90;;;-144.05;80.28;125687.94;5036613;28;20030;-78
2023/01/12 01:14:23;;;;;;;12.93;1.88;;;8.30;99.90;;;-144.05;80.55;125687.94;5036511;28;20029;-77
2023/01/12 01:16:50;;;;;;;7.07;1.95;;;8.40;99.90;;;-144.05;80.02;125687.94;5019489;28;20029;-77
2023/01/12 01:19:15;;;;;;;11.82;3.05;;;8.40;99.90;;;-144.05;80.18;125687.94;5036439;28;20037;-78
2023/01/12 01:21:41;;;;;;;11.25;2.40;;;8.40;99.90;;;-144.05;79.92;125687.94;5036839;28;20400;-77
2023/01/12 01:24:13;;;;;;;10.65;2.10;;;8.40;99.90;;;-144.05;80.00;125687.94;5036838;28;20033;-77
2023/01/12 01:26:40;;;;;;;11.15;2.22;;;8.40;99.90;;;-144.05;79.90;125687.94;5036630;28;20115;-77
2023/01/12 01:29:07;;;;;;;8.75;2.67;;;8.40;99.90;;;-144.05;79.68;125687.94;5036928;28;20454;-78
2023/01/12 01:31:34;;;;;;;7.00;1.92;;;8.40;99.90;;;-144.05;79.86;125687.94;5036479;28;20097;-78
2023/01/12 01:34:01;;;;;;;11.27;1.80;;;8.40;99.90;;;-144.05;80.16;125687.94;5036260;28;20464;-78
2023/01/12 01:36:27;;;;;;;12.45;2.33;;;8.40;99.90;;;-144.05;80.09;125687.94;5036952;28;20044;-76
2023/01/12 01:38:53;;;;;;;6.15;1.95;;;8.40;99.90;;;-144.05;80.52;125687.94;5018061;28;20091;-77
2023/01/12 01:41:26;;;;;;;12.77;2.42;;;8.40;99.90;;;-144.05;80.86;125687.94;5019014;28;20033;-78
2023/01/12 01:44:03;;;;;;;5.93;1.90;;;8.40;99.90;;;-144.05;81.02;125687.94;5036241;28;20059;-78
2023/01/12 01:47:22;;;;;;;6.88;1.80;;;8.50;99.90;;;-144.05;80.74;125687.94;5035918;28;20037;-77
2023/01/12 01:49:57;;;;;;;6.05;1.58;;;8.50;99.90;;;-144.05;80.71;125687.94;4974119;28;20504;-77
2023/01/12 01:52:34;;;;;;;10.88;2.08;;;8.50;99.90;;;-144.05;80.27;125687.94;5017584;28;20036;-78
2023/01/12 01:55:20;;;;;;;10.60;2.45;;;8.60;99.90;;;-144.05;80.50;125687.94;5035356;28;20086;-76
2023/01/12 01:58:11;;;;;;;8.00;2.20;;;8.60;99.90;;;-144.05;80.14;125687.94;5035976;28;20436;-76
2023/01/12 02:00:42;;;;;;;11.23;2.08;;;8.50;99.90;;;-144.05;80.60;125687.94;5017876;28;20041;-78
2023/01/12 02:03:11;;;;;;;13.35;2.10;;;8.50;99.90;;;-144.05;80.47;125687.94;5035658;28;20389;-76
2023/01/12 02:05:45;;;;;;;16.90;2.97;;;8.60;99.90;;;-144.05;80.04;125687.94;5035210;28;20489;-76
2023/01/12 02:08:44;;;;;;;12.93;2.40;;;8.60;99.90;;;-144.05;80.05;125687.94;5035592;28;20084;-77
2023/01/12 02:17:14;;;;;;;10.70;2.55;;;8.70;99.90;;;-144.05;78.68;125687.94;5035036;28;20052;-78
2023/01/12 02:20:23;;;;;;;14.25;2.53;;;8.70;99.90;;;-144.05;78.85;125687.94;5033707;28;20033;-79
2023/01/12 02:23:29;;;;;;;12.35;2.92;;;8.70;99.90;;;-144.05;78.49;125687.94;5034344;28;20029;-78
2023/01/12 02:26:21;;;;;;;10.23;2.10;;;8.80;99.90;;;-144.05;78.56;125687.94;5035409;28;20100;-78
2023/01/12 02:29:45;;;;;;;11.15;2.42;;;8.80;99.90;;;-144.05;79.20;125687.94;5034675;28;20450;-76
2023/01/12 02:32:26;;;;;;;14.95;3.08;;;8.80;99.90;;;-144.05;79.50;125687.94;4972725;28;20039;-78
2023/01/12 02:35:30;;;;;;;14.85;2.83;;;8.80;99.90;;;-144.05;79.62;125687.94;4957074;28;20027;-78
2023/01/12 02:38:22;;;;;;;14.77;3.03;;;8.70;99.90;;;-144.05;79.78;125687.94;5025675;28;20110;-78
2023/01/12 02:42:39;;;;;;;13.40;2.40;;;8.70;99.90;;;-144.05;80.09;125687.94;5035089;28;20492;-78
2023/01/12 02:44:25;;;;;;;8.43;2.50;;;8.70;99.90;;;-144.05;80.20;125687.94;5034821;28;20412;-76
2023/01/12 02:46:52;;;;;;;14.50;2.50;;;8.60;99.90;;;-144.05;80.34;125687.94;5035046;28;20037;-77
2023/01/12 02:49:27;;;;;;;12.90;3.25;;;8.70;99.90;;;-144.05;80.29;125687.94;5034965;28;20036;-78
2023/01/12 02:52:04;;;;;;;15.33;3.10;;;8.70;99.90;;;-144.05;80.50;125687.94;5016174;28;20413;-76
2023/01/12 02:54:35;;;;;;;15.20;3.40;;;8.60;99.90;;;-144.05;80.35;125687.94;5033809;28;20417;-78
2023/01/12 02:57:09;;;;;;;13.43;2.90;;;8.60;99.90;;;-144.05;80.16;125687.94;5034408;28;20026;-77
2023/01/12 02:59:41;;;;;;;13.55;3.00;;;8.60;99.90;;;-144.05;80.50;125687.94;5034588;28;20040;-77
2023/01/12 03:02:23;;;;;;;18.08;2.60;;;8.70;99.90;;;-144.05;80.33;125687.94;5033386;28;20067;-77
2023/01/12 03:04:50;;;;;;;17.77;3.55;;;8.70;99.90;;;-144.05;80.68;125687.94;5046418;28;20075;-78
2023/01/12 03:07:40;;;;;;;21.20;3.30;;;8.70;99.90;;;-144.05;80.40;125687.94;5048410;28;20026;-78
2023/01/12 03:10:49;;;;;;;14.73;3.00;;;8.60;99.90;;;-144.05;81.17;125687.94;5034360;28;20033;-77
2023/01/12 03:13:19;;;;;;;12.25;3.08;;;8.60;99.90;;;-144.05;81.79;125687.94;5034616;28;20029;-78
2023/01/12 03:15:52;;;;;;;13.35;2.40;;;8.60;99.90;;;-144.05;81.18;125687.94;5034407;28;20044;-77
2023/01/12 03:18:43;;;;;;;10.38;2.58;;;8.60;99.90;;;-144.05;81.38;125687.94;5044534;28;20060;-77
2023/01/12 03:21:26;;;;;;;15.85;2.78;;;8.60;99.90;;;-144.05;81.24;125687.94;5034911;28;20071;-77
2023/01/12 03:24:07;;;;;;;17.90;2.50;;;8.50;99.90;;;-144.05;80.98;125687.94;5016593;28;20037;-77
2023/01/12 03:26:42;;;;;;;17.70;3.67;;;8.60;99.90;;;-144.05;81.23;125687.94;5034816;28;20029;-77
2023/01/12 03:29:37;;;;;;;10.65;2.25;;;8.60;99.90;;;-144.05;81.02;125687.94;5034179;28;20055;-78
2023/01/12 03:32:05;;;;;;;18.95;2.83;;;8.60;99.90;;;-144.05;81.33;125687.94;5034134;28;20022;-78
2023/01/12 03:34:34;;;;;;;12.88;2.60;;;8.60;99.90;;;-144.05;81.46;125687.94;5033540;28;20477;-78
2023/01/12 03:37:31;;;;;;;8.77;2.38;;;8.60;99.90;;;-144.05;81.37;125687.94;5034634;28;20038;-77
2023/01/12 03:40:10;;;;;;;14.35;2.25;;;8.60;99.90;;;-144.05;81.81;125687.94;5034721;28;20552;-78
2023/01/12 03:43:16;;;;;;;12.40;3.50;;;8.60;99.90;;;-144.05;81.57;125687.94;5033601;28;20034;-77
2023/01/12 03:45:55;;;;;;;15.45;2.80;;;8.60;99.90;;;-144.05;81.72;125687.94;5034193;28;20026;-78
2023/01/12 03:48:37;;;;;;;17.80;3.90;;;8.60;99.90;;;-144.05;81.64;125687.94;5033579;28;20029;-77
2023/01/12 03:51:21;;;;;;;14.70;3.30;;;8.60;99.90;;;-144.05;81.62;125687.94;5034477;28;20481;-78
2023/01/12 03:53:51;;;;;;;13.27;2.92;;;8.60;99.90;;;-144.05;80.80;125687.94;5034774;28;20026;-77
2023/01/12 03:56:23;;;;;;;13.60;2.65;;;8.70;99.90;;;-144.05;80.51;125687.94;5034579;28;20045;-78
2023/01/12 03:58:51;;;;;;;14.32;2.40;;;8.70;99.90;;;-144.05;80.83;125687.94;5019108;28;20029;-78
2023/01/12 04:01:17;;;;;;;11.38;1.83;;;8.70;99.90;;;-144.05;80.31;125687.94;5036557;28;20045;-76
2023/01/12 04:03:44;;;;;;;7.38;1.90;;;8.80;99.90;;;-144.05;80.47;125687.94;5034859;28;20133;-77
2023/01/12 04:06:10;;;;;;;11.07;2.25;;;8.70;99.90;;;-144.05;80.34;125687.94;5035167;28;20425;-76
2023/01/12 04:08:36;;;;;;;11.23;2.50;;;8.80;99.90;;;-144.05;80.53;125687.94;5019524;28;20030;-77
2023/01/12 04:12:09;;;;;;;7.65;2.10;;;8.80;99.90;;;-144.05;80.07;125687.94;5036823;28;20028;-77
2023/01/12 04:13:51;;;;;;;11.23;2.20;;;8.80;99.90;;;-144.05;80.10;125687.94;5035821;28;20061;-77
2023/01/12 04:16:18;;;;;;;12.02;2.80;;;8.80;99.90;;;-144.05;80.05;125687.94;5034566;28;20033;-76
2023/01/12 04:18:44;;;;;;;12.05;2.15;;;8.80;99.90;;;-144.05;80.14;125687.94;5034415;28;20049;-76
2023/01/12 04:22:41;;;;;;;10.80;2.28;;;8.80;99.90;;;-144.05;80.01;125687.94;5034211;28;20033;-77
2023/01/12 04:23:57;;;;;;;16.33;2.28;;;8.80;99.90;;;-144.05;80.00;125687.94;5069996;22;20048;-83
2023/01/12 04:26:23;;;;;;;6.75;1.92;;;8.80;99.90;;;-144.05;80.54;125687.94;5072914;28;20086;-84
2023/01/12 04:28:49;;;;;;;9.25;1.60;;;8.80;99.90;;;-144.05;80.49;125687.94;5077003;28;20083;-85
2023/01/12 04:31:15;;;;;;;12.25;2.38;;;8.80;99.90;;;-144.05;80.55;125687.94;5060470;28;20021;-83
2023/01/12 04:33:42;;;;;;;6.40;1.63;;;8.80;99.90;;;-144.05;80.94;125687.94;5074367;28;20025;-82
2023/01/12 04:36:10;;;;;;;11.52;2.55;;;8.70;99.90;;;-144.05;80.92;125687.94;5040208;28;20036;-80
2023/01/12 04:38:40;;;;;;;7.65;1.67;;;8.70;99.90;;;-144.05;80.52;125687.94;5039745;28;20097;-80
2023/01/12 04:41:07;;;;;;;10.82;2.22;;;8.70;99.90;;;-144.05;80.47;125687.94;5041327;28;20437;-82
2023/01/12 04:43:35;;;;;;;8.98;2.08;;;8.70;99.90;;;-144.05;80.74;125687.94;5039000;28;20040;-82
2023/01/12 04:46:09;;;;;;;7.75;1.83;;;8.80;99.90;;;-144.05;80.89;125687.94;5039832;28;20021;-79
2023/01/12 04:48:36;;;;;;;7.03;1.52;;;8.70;99.90;;;-144.05;81.17;125687.94;5039343;28;20025;-81
2023/01/12 04:51:03;;;;;;;5.95;1.55;;;8.70;99.90;;;-144.05;81.84;125687.94;5057078;28;20173;-82
2023/01/12 04:53:29;;;;;;;4.30;1.65;;;8.70;99.90;;;-144.05;81.84;125687.94;5039594;28;20025;-83
2023/01/12 04:55:56;;;;;;;13.38;1.90;;;8.70;99.90;;;-144.05;82.03;125687.94;5039567;28;20029;-82
2023/01/12 04:58:23;;;;;;;11.30;2.67;;;8.60;99.90;;;-144.05;82.33;125687.94;5039082;28;20029;-82
2023/01/12 05:00:49;;;;;;;3.70;1.65;;;8.60;99.90;;;-144.05;82.46;125687.94;5038892;28;20029;-82
2023/01/12 05:03:16;;;;;;;6.35;1.40;;;8.60;99.90;;;-144.05;82.39;125687.94;5057242;28;20103;-82
2023/01/12 05:05:42;;;;;;;8.70;2.20;;;8.60;99.90;;;-144.05;82.45;125687.94;5057018;28;20480;-82
2023/01/12 05:10:58;;;;;;;6.40;1.85;;;8.50;99.90;;;-144.05;82.60;125687.94;5058647;28;20087;-81
2023/01/12 05:13:29;;;;;;;6.47;1.58;;;8.50;99.90;;;-144.05;82.91;125687.94;5039802;28;20481;-80
2023/01/12 05:15:55;;;;;;;5.60;1.48;;;8.50;99.90;;;-144.05;82.82;125687.94;5038413;28;20032;-82
2023/01/12 05:18:21;;;;;;;4.53;1.15;;;8.50;99.90;;;-144.05;83.11;125687.94;5056547;28;20025;-82
2023/01/12 05:20:47;;;;;;;8.00;1.67;;;8.50;99.90;;;-144.05;83.42;125687.94;5056197;28;20104;-79
2023/01/12 05:23:13;;;;;;;7.63;1.70;;;8.40;99.90;;;-144.05;83.04;125687.94;5055476;28;20473;-78
2023/01/12 05:25:39;;;;;;;7.68;1.30;;;8.40;99.90;;;-144.05;83.04;125687.94;5056796;28;20048;-81
2023/01/12 05:28:05;;;;;;;5.72;1.42;;;8.50;99.90;;;-144.05;83.13;125687.94;5038945;28;20025;-82
2023/01/12 05:30:31;;;;;;;5.03;1.10;;;8.40;99.90;;;-144.05;83.34;125687.94;5038809;28;20029;-79
2023/01/12 05:32:57;;;;;;;6.03;1.20;;;8.40;99.90;;;-144.05;82.85;125687.94;5041974;28;20424;-80
2023/01/12 05:35:24;;;;;;;7.55;1.35;;;8.50;99.90;;;-144.05;82.76;125687.94;5056218;28;20040;-81
2023/01/12 05:37:50;;;;;;;6.57;1.10;;;8.40;99.90;;;-144.05;83.21;125687.94;5038776;28;20029;-79
2023/01/12 05:40:16;;;;;;;4.05;1.15;;;8.40;99.90;;;-144.05;83.39;125687.94;5038610;28;20052;-80
2023/01/12 05:45:26;;;;;;;7.13;1.60;;;8.40;99.90;;;-144.05;82.44;125687.94;5055955;28;20032;-82
2023/01/12 05:48:00;;;;;;;5.82;1.23;;;8.40;99.90;;;-144.05;82.11;125687.94;5039905;28;20032;-79
2023/01/12 05:50:27;;;;;;;8.07;1.50;;;8.40;99.90;;;-144.05;82.35;125687.94;5057109;28;20484;-82
2023/01/12 05:52:53;;;;;;;4.85;1.00;;;8.50;99.90;;;-144.05;82.11;125687.94;5059111;28;20025;-79
2023/01/12 05:55:19;;;;;;;8.48;1.42;;;8.50;99.90;;;-144.05;82.22;125687.94;5057880;28;20524;-79
2023/01/12 05:57:45;;;;;;;5.38;1.08;;;8.50;99.90;;;-144.05;82.41;125687.94;5039459;28;20036;-79
2023/01/12 06:00:12;;;;;;;3.28;1.02;;;8.50;99.90;;;-144.05;82.44;125687.94;5057293;28;20527;-79
2023/01/12 06:02:38;;;;;;;3.63;0.80;;;8.40;99.90;;;-144.05;82.66;125687.94;5057624;28;20052;-79
2023/01/12 06:05:08;;;;;;;3.53;1.27;;;8.40;99.90;;;-144.05;82.73;125687.94;5058033;28;20025;-77
2023/01/12 06:07:34;;;;;;;3.65;1.42;;;8.40;99.90;;;-144.05;82.82;125687.94;5038778;28;20060;-78
2023/01/12 06:10:00;;;;;;;2.80;0.70;;;8.30;99.90;;;-144.05;82.64;125687.94;5056807;28;20021;-80
2023/01/12 06:15:10;;;;;;;3.50;0.57;;;8.40;99.90;;;-144.05;81.46;125687.94;5072324;28;20048;-79
2023/01/12 06:17:36;;;;;;;2.63;0.73;;;8.40;99.90;;;-144.05;81.09;125687.94;5055072;28;20032;-81
2023/01/12 06:20:03;;;;;;;3.58;0.90;;;8.40;99.90;;;-144.05;81.49;125687.94;5042713;28;20081;-80
2023/01/12 06:22:29;;;;;;;4.65;0.68;;;8.30;99.90;;;-144.05;81.40;125687.94;5057644;28;20435;-80
2023/01/12 06:24:54;;;;;;;2.13;0.60;;;8.30;99.90;;;-144.05;81.43;125687.94;5058114;28;20083;-81
2023/01/12 06:27:20;;;;;;;2.95;0.60;;;8.30;99.90;;;-144.05;81.00;125687.94;5039562;28;20033;-81
2023/01/12 06:29:47;;;;;;;2.53;0.40;;;8.30;99.90;;;-144.05;81.08;125687.94;5056480;28;20056;-82
2023/01/12 06:32:13;;;;;;;1.23;0.52;;;8.30;99.90;;;-144.05;81.36;125687.94;5056406;28;20025;-80
2023/01/12 06:34:39;;;;;;;2.40;0.50;;;8.30;99.90;;;-144.05;81.81;125687.94;5039312;28;20025;-83
2023/01/12 06:37:07;;;;;;;2.17;0.70;;;8.30;99.90;;;-144.05;81.60;125687.94;5057750;28;20098;-80
2023/01/12 06:39:33;;;;;;;2.72;0.63;;;8.30;99.90;;;-144.05;81.89;125687.94;5039430;28;20443;-81
2023/01/12 06:44:44;;;;;;;3.08;0.70;;;8.30;99.90;;;-144.05;82.27;125687.94;5057160;28;20458;-80
2023/01/12 06:47:09;;;;;;;4.53;0.98;;;8.20;99.90;;;-144.05;82.58;125687.94;5057804;28;20033;-80
2023/01/12 06:49:35;;;;;;;2.38;0.70;;;8.30;99.90;;;-144.05;82.16;125687.94;5038784;28;20112;-79
2023/01/12 06:52:01;;;;;;;1.77;0.43;;;8.40;99.90;;;-144.05;82.18;125687.94;5056379;28;20467;-80
2023/01/12 06:54:27;;;;;;;1.48;0.55;;;8.40;99.90;;;-144.05;82.72;125687.94;5037279;28;20116;-81
2023/01/12 06:56:54;;;;;;;2.58;0.60;;;8.40;99.90;;;-144.05;82.30;125687.94;5038549;28;20248;-80
2023/01/12 06:59:20;;;;;;;3.88;1.98;;;8.40;99.90;;;-144.05;82.24;125687.94;5038067;28;20035;-78
2023/01/12 07:01:46;;;;;;;4.60;0.80;;;8.40;99.90;;;-144.05;82.24;125687.94;5055212;28;20059;-80
2023/01/12 07:04:12;;;;;;;2.63;1.00;;;8.50;99.90;;;-144.05;82.06;125687.94;5056451;28;20028;-81
2023/01/12 07:06:38;;;;;;;2.60;0.55;;;8.50;99.90;;;-144.05;82.06;125687.94;5038125;28;20033;-80
2023/01/12 07:09:05;;;;;;;2.88;0.65;;;8.50;99.90;;;-144.05;81.97;125687.94;5055681;28;20021;-81
2023/01/12 07:11:31;;;;;;;0.75;0.47;;;8.50;99.90;;;-144.05;82.27;125687.94;5054375;28;20025;-79
2023/01/12 07:13:57;;;;;;;1.60;0.73;;;8.50;99.90;;;-144.05;82.51;125687.94;5037465;28;20052;-83
2023/01/12 07:16:23;;;;;;;1.27;0.47;;;8.50;99.90;;;-144.05;82.47;125687.94;5036579;28;20492;-80
2023/01/12 07:18:49;;;;;;;5.00;0.98;;;8.50;99.90;;;-144.05;82.31;125687.94;5054277;28;20104;-80
2023/01/12 07:21:16;;;;;;;4.32;0.80;;;8.60;99.90;;;-144.05;81.88;125687.94;5053447;28;20036;-81
2023/01/12 07:23:42;;;;;;;2.03;1.15;;;8.50;99.90;;;-144.05;82.83;125687.94;5053899;28;20037;-83
2023/01/12 07:26:09;;;;;;;0.95;0.50;;;8.50;99.90;;;-144.05;82.86;125687.94;5055549;28;20040;-79
2023/01/12 07:28:36;;;;;;;3.20;0.50;;;8.50;99.90;;;-144.05;83.24;125687.94;5037346;28;20108;-81
2023/01/12 07:31:05;;;;;;;2.67;0.90;;;8.50;99.90;;;-144.05;82.51;125687.94;5037258;28;20049;-82
2023/01/12 07:33:33;;;;;;;1.98;0.57;;;8.60;99.90;;;-144.05;82.89;125687.94;5037603;28;20025;-80
2023/01/12 07:36:01;;;;;;;1.60;0.70;;;8.60;99.90;;;-144.05;82.56;125687.94;5056313;28;20392;-80
2023/01/12 07:38:29;;;;;;;2.65;0.70;;;8.60;99.90;;;-144.05;82.69;125687.94;5054573;28;20052;-80
2023/01/12 07:41:00;;;;;;;1.33;0.82;;;8.60;99.90;;;-144.05;83.03;125687.94;5055133;28;20090;-80
2023/01/12 07:43:26;;;;;;;4.32;1.25;;;8.70;99.90;;;-144.05;82.60;125687.94;5037776;28;20032;-80
2023/01/12 07:45:57;;;;;;;1.42;0.70;;;8.70;99.90;;;-144.05;83.01;125687.94;5037409;28;20049;-79
2023/01/12 07:48:25;;;;;;;2.80;0.80;;;8.70;99.90;;;-144.05;82.92;125687.94;5056218;28;20395;-82
2023/01/12 07:50:52;;;;;;;1.77;0.60;;;8.70;99.90;;;-144.05;82.76;125687.94;5037452;28;20518;-80
2023/01/12 07:53:19;;;;;;;2.42;1.08;;;8.70;99.90;;;-144.05;83.59;125687.94;5055628;28;20064;-80
2023/01/12 07:55:45;;;;;;;3.47;0.77;;;8.70;99.90;;;-144.05;83.77;125687.94;5055587;28;20029;-81
2023/01/12 07:58:11;;;;;;;3.25;0.90;;;8.70;99.90;;;-144.05;83.49;125687.94;5038183;28;20032;-81
2023/01/12 08:00:37;;;;;;;3.78;0.93;;;8.70;99.90;;;-144.05;83.85;125687.94;5056320;28;20029;-80
2023/01/12 08:03:11;;;;;;;3.60;0.88;;;8.60;99.90;;;-144.05;84.17;125687.94;5057177;28;20040;-80
2023/01/12 08:05:38;;;;;;;4.00;1.35;;;8.60;99.90;;;-144.05;84.35;125687.94;5059133;28;20036;-80
2023/01/12 08:08:06;;;;;;;2.28;0.70;;;8.70;99.90;;;-144.05;84.27;125687.94;5059303;28;20132;-80
2023/01/12 08:10:32;;;;;;;4.45;1.27;;;8.70;99.90;;;-144.05;83.94;125687.94;5059149;28;20437;-82
2023/01/12 08:12:58;;;;;;;5.47;1.10;;;8.80;99.90;;;-144.05;84.06;125687.94;5059331;28;20029;-79
2023/01/12 08:15:30;;;;;;;2.65;1.10;;;8.80;99.90;;;-144.05;84.29;125687.94;5040804;28;20032;-80
2023/01/12 08:18:20;;;;;;;5.57;1.50;;;8.80;99.90;;;-144.05;83.61;125687.94;5058311;28;20115;-75
2023/01/12 08:20:47;;;;;;;6.43;1.50;;;8.80;99.90;;;-144.05;84.37;125687.94;5059391;28;20028;-81
2023/01/12 08:23:30;;;;;;;4.20;1.10;;;8.90;99.90;;;-144.05;84.26;125687.94;5060043;28;20139;-80
2023/01/12 08:26:05;;;;;;;3.55;1.23;;;8.90;99.90;;;-144.05;84.61;125687.94;5040820;28;20036;-79
2023/01/12 08:28:42;;;;;;;6.03;1.05;;;9.00;99.90;;;-144.05;84.51;125687.94;5059279;28;20100;-81
2023/01/12 08:31:14;;;;;;;5.00;1.35;;;9.10;99.90;;;-144.05;84.41;125687.94;5059637;28;20021;-80
2023/01/12 08:33:42;;;;;;;1.13;0.85;;;9.10;99.90;;;-144.05;84.34;125687.94;5058046;28;20429;-79
2023/01/12 08:36:15;;;;;;;4.65;1.67;;;9.20;99.90;;;-144.05;84.68;125687.94;5057991;28;20501;-79
2023/01/12 08:38:42;;;;;;;5.05;1.52;;;9.20;99.90;;;-144.05;84.33;125687.94;5057487;28;20033;-79
2023/01/12 08:44:01;;;;;;;3.75;0.93;;;9.30;99.90;;;-144.05;83.88;125687.94;5059093;28;20044;-79
2023/01/12 08:46:50;;;;;;;5.20;1.00;;;9.40;99.90;;;-144.05;83.54;125687.94;5059319;28;20029;-79
2023/01/12 08:49:23;;;;;;;3.28;1.15;;;9.50;99.90;;;-144.05;84.02;125687.94;5058087;28;20075;-81
2023/01/12 08:51:48;;;;;;;5.85;1.42;;;9.50;99.90;;;-144.05;83.93;125687.94;5058059;28;20032;-79
2023/01/12 08:54:18;;;;;;;3.25;1.25;;;9.50;99.90;;;-144.05;83.97;125687.94;5057648;28;20021;-80
2023/01/12 08:56:45;;;;;;;3.90;1.63;;;9.40;99.90;;;-144.05;84.46;125687.94;5058086;28;20048;-81
2023/01/12 08:59:11;;;;;;;2.28;1.15;;;9.40;99.90;;;-144.05;84.19;125687.94;5057437;28;20070;-81
2023/01/12 09:01:38;;;;;;;7.40;2.28;;;9.40;99.90;;;-144.05;84.87;125687.94;5057812;28;20120;-80
2023/01/12 09:04:04;;;;;;;3.15;1.17;;;9.40;99.90;;;-144.05;84.45;125687.94;5057901;28;20090;-81
2023/01/12 09:06:36;;;;;;;2.75;1.00;;;9.40;99.90;;;-144.05;84.34;125687.94;5058864;28;20040;-82
2023/01/12 09:09:11;;;;;;;7.70;1.40;;;9.50;99.90;;;-144.05;84.19;125687.94;5058031;28;20025;-79
2023/01/12 09:11:42;;;;;;;2.10;0.80;;;9.50;99.90;;;-144.05;84.56;125687.94;5057714;28;20033;-79
2023/01/12 09:14:10;;;;;;;5.38;1.25;;;9.50;99.90;;;-144.05;84.53;125687.94;5058181;28;20040;-79
2023/01/12 09:16:36;;;;;;;3.88;1.38;;;9.50;99.90;;;-144.05;84.16;125687.94;5058386;28;20032;-80
2023/01/12 09:19:02;;;;;;;4.70;1.42;;;9.60;99.90;;;-144.05;84.32;125687.94;5040777;28;20033;-80
2023/01/12 09:21:31;;;;;;;2.55;1.00;;;9.60;99.90;;;-144.05;83.71;125687.94;5057168;28;20037;-79
2023/01/12 09:23:57;;;;;;;4.18;0.70;;;9.60;99.90;;;-144.05;83.49;125687.94;5039568;28;20436;-80
2023/01/12 09:26:34;;;;;;;4.80;0.80;;;9.70;99.90;;;-144.05;83.54;125687.94;5056782;28;20033;-80
2023/01/12 09:29:03;;;;;;;2.63;0.88;;;9.70;99.90;;;-144.05;83.59;125687.94;5057861;28;20403;-77
2023/01/12 09:31:32;;;;;;;3.53;0.80;;;9.70;99.90;;;-144.05;83.12;125687.94;5058256;28;20021;-79
2023/01/12 09:33:59;;;;;;;2.17;1.17;;;9.80;99.90;;;-144.05;83.07;125687.94;5038706;28;20029;-82
2023/01/12 09:36:30;;;;;;;1.60;0.55;;;9.80;99.90;;;-144.05;83.26;125687.94;5056510;28;20159;-80
2023/01/12 09:38:57;;;;;;;3.85;0.65;;;9.80;99.90;;;-144.05;83.24;125687.94;5056332;28;20120;-80
2023/01/12 09:47:46;;;;;;;3.30;0.60;;;9.90;99.90;;;-144.05;82.97;125687.94;5056992;28;20098;-81
2023/01/12 09:50:19;;;;;;;2.97;0.63;;;9.90;99.90;;;-144.05;83.26;125687.94;5038918;28;20489;-80
2023/01/12 09:53:02;;;;;;;6.63;1.17;;;9.90;99.90;;;-144.05;83.23;125687.94;5038668;28;20048;-80
2023/01/12 09:55:53;;;;;;;2.28;0.55;;;9.90;99.90;;;-144.05;82.54;125687.94;5057222;28;20021;-80
2023/01/12 09:58:51;;;;;;;2.05;0.57;;;10.00;99.90;;;-144.05;82.91;125687.94;5057247;28;20059;-80
2023/01/12 10:01:21;;;;;;;2.95;1.02;;;10.00;99.90;;;-144.05;82.55;125687.94;5056384;28;20036;-81
2023/01/12 10:03:47;;;;;;;1.75;0.82;;;10.00;99.90;;;-144.05;83.40;125687.94;5055772;28;20040;-82
2023/01/12 10:06:18;;;;;;;3.85;1.45;;;10.00;99.90;;;-144.05;82.99;125687.94;5038280;28;20052;-81
2023/01/12 10:08:57;;;;;;;4.38;0.45;;;10.00;99.90;;;-144.05;82.69;125687.94;5055790;28;20427;-82
2023/01/12 10:11:55;;;;;;;3.08;0.70;;;10.00;99.90;;;-144.05;82.79;125687.94;5056139;28;20381;-82
2023/01/12 10:14:33;;;;;;;0.63;0.57;;;10.00;99.90;;;-144.05;82.81;125687.94;5037903;28;20033;-83
2023/01/12 10:17:16;;;;;;;2.35;0.73;;;10.10;99.90;;;-144.05;82.76;125687.94;5037985;28;20032;-82
2023/01/12 10:19:54;;;;;;;3.13;0.70;;;10.10;99.90;;;-144.05;81.78;125687.94;5037142;28;20029;-80
2023/01/12 10:22:38;;;;;;;2.42;1.02;;;10.10;99.90;;;-144.05;81.67;125687.94;5056035;28;20420;-81
2023/01/12 10:26:08;;;;;;;2.30;0.60;;;10.10;99.90;;;-144.05;81.80;125687.94;5038506;28;20055;-80
2023/01/12 10:28:36;;;;;;;0.95;0.43;;;10.20;99.90;;;-144.05;81.22;125687.94;5057094;28;20487;-81
2023/01/12 10:31:13;;;;;;;4.65;0.65;;;10.30;99.90;;;-144.05;81.59;125687.94;5056250;28;20112;-81
2023/01/12 10:34:06;;;;;;;4.15;0.60;;;10.20;99.90;;;-144.05;81.75;125687.94;5056198;28;20059;-82
2023/01/12 10:36:42;;;;;;;2.65;0.60;;;10.20;99.90;;;-144.05;81.34;125687.94;5056547;28;20377;-82
2023/01/12 10:39:41;;;;;;;4.15;0.90;;;10.20;99.90;;;-144.05;81.70;125687.94;5039030;28;20407;-81
2023/01/12 10:45:22;;;;;;;2.67;1.33;;;10.30;99.90;;;-144.05;80.98;125687.94;5057970;28;20036;-82
2023/01/12 10:47:56;;;;;;;2.53;1.17;;;10.40;99.90;;;-144.05;80.59;125687.94;5039445;28;20029;-81
2023/01/12 10:50:36;;;;;;;4.30;0.70;;;10.40;99.90;;;-144.05;80.92;125687.94;5038966;28;20028;-80
2023/01/12 10:53:14;;;;;;;2.60;0.70;;;10.40;99.90;;;-144.05;81.44;125687.94;5057114;28;20021;-83
2023/01/12 10:55:43;;;;;;;7.07;0.77;;;10.40;99.90;;;-144.05;81.82;125687.94;5038478;28;20029;-81
2023/01/12 10:58:32;;;;;;;6.18;0.93;;;10.40;99.90;;;-144.05;82.59;125687.94;5056167;28;20025;-81
2023/01/12 11:00:58;;;;;;;3.90;0.70;;;10.30;99.90;;;-144.05;83.02;125687.94;5056996;28;20029;-81